Time;durP1;ratioP1;P1;durP2;ratioP2;P2;SDS_P1;SDS_P2;PMS_P1;PMS_P2;Temp;Humidity;BMP_temperature;BMP_pressure;BME280_temperature;BME280_humidity;BME280_pressure;Samples;Min_cycle;Max_cycle;Signal;HPM_P1;HPM_P2
2022/05/03 00:00:47;;;;;;;3.00;0.70;;;15.10;58.20;;;;;;5054150;28;20035;-72
2022/05/03 00:03:24;;;;;;;2.95;0.52;;;15.00;58.30;;;;;;5054306;28;20017;-72
2022/05/03 00:06:06;;;;;;;1.02;0.50;;;15.00;58.40;;;;;;5053608;28;20108;-72
2022/05/03 00:08:43;;;;;;;1.55;0.88;;;15.00;59.20;;;;;;5054058;28;20033;-72
2022/05/03 00:11:32;;;;;;;2.30;1.00;;;15.00;58.90;;;;;;5054017;28;20099;-72
2022/05/03 00:14:06;;;;;;;2.00;0.90;;;15.00;58.20;;;;;;5053949;28;20081;-72
2022/05/03 00:16:34;;;;;;;2.03;0.90;;;14.80;58.50;;;;;;5053925;28;20047;-72
2022/05/03 00:19:01;;;;;;;1.90;0.65;;;14.70;59.30;;;;;;5053401;28;20021;-72
2022/05/03 00:21:27;;;;;;;1.77;0.77;;;14.60;59.40;;;;;;5053825;28;20025;-72
2022/05/03 00:23:53;;;;;;;1.50;0.63;;;14.70;59.70;;;;;;5053894;28;20491;-72
2022/05/03 00:26:19;;;;;;;1.88;0.40;;;14.70;60.60;;;;;;5053848;28;20022;-72
2022/05/03 00:28:45;;;;;;;2.42;1.15;;;14.90;60.80;;;;;;5053433;28;20103;-72
2022/05/03 00:31:12;;;;;;;1.83;1.27;;;14.90;59.20;;;;;;5053569;28;20017;-72
2022/05/03 00:33:39;;;;;;;2.55;1.33;;;14.80;59.20;;;;;;5053018;28;20024;-72
2022/05/03 00:36:05;;;;;;;1.77;1.10;;;14.60;59.20;;;;;;5053386;28;20052;-72
2022/05/03 00:38:34;;;;;;;1.63;0.70;;;14.40;60.00;;;;;;5053598;28;20519;-72
2022/05/03 00:41:04;;;;;;;3.15;1.10;;;14.20;60.10;;;;;;5053382;28;20033;-72
2022/05/03 00:44:55;;;;;;;3.25;1.10;;;14.00;60.30;;;;;;5053347;28;20028;-72
2022/05/03 00:47:02;;;;;;;2.85;1.10;;;14.00;60.70;;;;;;5052840;28;20047;-72
2022/05/03 00:49:46;;;;;;;5.25;1.48;;;13.80;60.90;;;;;;5053166;28;20510;-72
2022/05/03 00:52:28;;;;;;;3.05;1.17;;;13.70;61.60;;;;;;5053149;28;20114;-72
2022/05/03 00:54:57;;;;;;;2.25;1.23;;;13.60;61.70;;;;;;5053005;28;20064;-72
2022/05/03 00:57:56;;;;;;;2.58;1.25;;;13.60;61.80;;;;;;5053134;28;20595;-72
2022/05/03 01:00:25;;;;;;;3.10;1.52;;;13.50;61.90;;;;;;5053148;28;20050;-72
2022/05/03 01:03:09;;;;;;;1.70;1.10;;;13.60;62.40;;;;;;5053141;28;20036;-72
2022/05/03 01:06:08;;;;;;;2.22;1.05;;;13.40;62.80;;;;;;5053181;28;20448;-72
2022/05/03 01:08:44;;;;;;;4.13;1.30;;;13.20;63.00;;;;;;5053093;28;20445;-72
2022/05/03 01:11:22;;;;;;;3.08;1.83;;;13.10;63.30;;;;;;5053233;28;20100;-72
2022/05/03 01:14:00;;;;;;;2.80;1.20;;;12.80;64.00;;;;;;5053031;28;20111;-72
2022/05/03 01:16:32;;;;;;;2.08;1.45;;;12.70;64.80;;;;;;5053410;28;20052;-72
2022/05/03 01:19:27;;;;;;;2.13;1.65;;;12.70;65.20;;;;;;5052986;28;20060;-72
2022/05/03 01:22:09;;;;;;;2.17;1.67;;;12.80;64.60;;;;;;5052820;28;20028;-72
2022/05/03 01:24:43;;;;;;;2.87;1.10;;;12.80;64.90;;;;;;5053177;28;20021;-72
2022/05/03 01:27:27;;;;;;;2.63;2.15;;;12.90;64.90;;;;;;5053046;28;20037;-72
2022/05/03 01:29:57;;;;;;;3.35;1.58;;;12.80;65.30;;;;;;5052862;28;20021;-72
2022/05/03 01:32:23;;;;;;;2.65;1.65;;;12.80;64.90;;;;;;5052815;28;20021;-72
2022/05/03 01:34:51;;;;;;;3.25;1.95;;;12.80;65.00;;;;;;5052774;28;20025;-72
2022/05/03 01:37:18;;;;;;;2.10;1.67;;;12.70;65.30;;;;;;5052949;28;20082;-72
2022/05/03 01:39:46;;;;;;;2.72;2.17;;;12.60;65.50;;;;;;5052815;28;20039;-72
2022/05/03 01:42:21;;;;;;;2.30;1.67;;;12.50;65.90;;;;;;5052799;28;20032;-72
2022/05/03 01:44:56;;;;;;;2.42;1.73;;;12.40;66.40;;;;;;5052706;28;20020;-72
2022/05/03 01:47:50;;;;;;;3.47;2.08;;;12.40;66.70;;;;;;5056297;28;20116;-72
2022/05/03 01:50:27;;;;;;;2.60;1.52;;;12.50;66.30;;;;;;5056583;28;20025;-72
2022/05/03 01:53:02;;;;;;;3.67;1.88;;;12.50;66.50;;;;;;5056545;28;20430;-72
2022/05/03 01:55:30;;;;;;;2.95;2.25;;;12.60;66.10;;;;;;5056588;28;20029;-72
2022/05/03 01:58:22;;;;;;;3.58;2.42;;;12.60;66.50;;;;;;5056110;28;20449;-72
2022/05/03 02:01:15;;;;;;;2.50;2.00;;;12.50;66.10;;;;;;5056577;28;20033;-72
2022/05/03 02:03:44;;;;;;;;;;;12.50;66.80;;;;;;5056913;28;20427;-72
2022/05/03 02:06:12;;;;;;;3.05;1.67;;;12.40;67.00;;;;;;5056413;28;20042;-72
2022/05/03 02:09:03;;;;;;;2.17;1.65;;;12.50;66.80;;;;;;5055949;28;20073;-72
2022/05/03 02:11:28;;;;;;;4.25;2.10;;;12.50;67.00;;;;;;5056394;28;20104;-72
2022/05/03 02:17:11;;;;;;;3.03;2.30;;;12.70;67.00;;;;;;5055892;28;20052;-72
2022/05/03 02:19:55;;;;;;;3.20;2.35;;;12.90;66.60;;;;;;5055982;28;20464;-72
2022/05/03 02:22:31;;;;;;;2.55;2.15;;;12.80;66.10;;;;;;5055687;28;20476;-72
2022/05/03 02:25:09;;;;;;;3.35;2.08;;;12.90;66.40;;;;;;5056192;28;20029;-71
2022/05/03 02:27:38;;;;;;;3.92;2.53;;;13.00;66.20;;;;;;5055687;28;20037;-71
2022/05/03 02:30:05;;;;;;;5.43;2.95;;;13.10;66.00;;;;;;5055685;28;20032;-72
2022/05/03 02:32:38;;;;;;;3.33;1.95;;;13.10;65.50;;;;;;5055803;28;20029;-72
2022/05/03 02:35:06;;;;;;;4.72;3.15;;;13.00;65.80;;;;;;5055595;28;20017;-72
2022/05/03 02:37:42;;;;;;;4.88;2.80;;;12.90;65.90;;;;;;5055711;28;20029;-71
2022/05/03 02:40:11;;;;;;;4.18;2.50;;;12.70;66.50;;;;;;5055882;28;20082;-72
2022/05/03 02:42:38;;;;;;;4.07;2.88;;;12.60;67.10;;;;;;5055499;28;20108;-71
2022/05/03 02:45:05;;;;;;;3.80;2.70;;;12.50;67.10;;;;;;5055451;28;20029;-72
2022/05/03 02:47:43;;;;;;;3.97;3.10;;;12.50;67.30;;;;;;5054998;28;20052;-72
2022/05/03 02:50:18;;;;;;;5.15;2.03;;;12.40;67.60;;;;;;5055555;28;20028;-72
2022/05/03 02:52:52;;;;;;;3.28;2.28;;;12.40;67.80;;;;;;5055571;28;20025;-72
2022/05/03 02:55:21;;;;;;;4.22;2.30;;;12.50;67.80;;;;;;5055550;28;20094;-72
2022/05/03 02:57:52;;;;;;;5.70;2.80;;;12.60;67.50;;;;;;5054378;28;20025;-72
2022/05/03 03:03:16;;;;;;;4.10;2.85;;;12.60;67.00;;;;;;5055118;28;20036;-72
2022/05/03 03:05:44;;;;;;;4.80;2.85;;;12.60;67.20;;;;;;5055357;28;20033;-72
2022/05/03 03:08:15;;;;;;;2.90;2.60;;;12.40;67.30;;;;;;5054595;28;20074;-72
2022/05/03 03:10:57;;;;;;;5.97;3.10;;;12.30;67.50;;;;;;5055256;28;20104;-72
2022/05/03 03:13:34;;;;;;;4.13;2.50;;;12.20;67.90;;;;;;5055135;28;20143;-72
2022/05/03 03:16:00;;;;;;;3.85;2.80;;;12.20;68.30;;;;;;5054899;28;20107;-71
2022/05/03 03:18:30;;;;;;;4.15;2.67;;;12.40;68.30;;;;;;5054580;28;20083;-72
2022/05/03 03:20:58;;;;;;;5.82;3.15;;;12.50;67.90;;;;;;5054659;28;20377;-72
2022/05/03 03:23:29;;;;;;;4.28;2.63;;;12.60;67.50;;;;;;5054927;28;20049;-71
2022/05/03 03:25:55;;;;;;;4.97;3.08;;;12.60;67.60;;;;;;5054776;28;20100;-72
2022/05/03 03:28:22;;;;;;;3.08;1.73;;;12.70;67.60;;;;;;5054235;28;20033;-72
2022/05/03 03:30:52;;;;;;;4.93;3.00;;;12.90;67.70;;;;;;5054613;28;20017;-72
2022/05/03 03:33:19;;;;;;;2.05;1.85;;;12.90;67.20;;;;;;5054403;28;20029;-72
2022/05/03 03:35:46;;;;;;;4.13;2.55;;;13.10;67.20;;;;;;5054426;28;20491;-71
2022/05/03 03:38:13;;;;;;;5.05;3.35;;;13.20;67.30;;;;;;5054582;28;20036;-71
2022/05/03 03:40:40;;;;;;;5.20;3.40;;;13.20;66.50;;;;;;5054265;28;20388;-72
2022/05/03 03:43:06;;;;;;;7.75;3.53;;;13.00;66.80;;;;;;5054220;28;20021;-72
2022/05/03 03:45:32;;;;;;;7.10;4.43;;;12.80;67.30;;;;;;5054094;28;20142;-71
2022/05/03 03:48:00;;;;;;;6.78;4.22;;;12.40;68.20;;;;;;5054243;28;20089;-72
2022/05/03 03:50:27;;;;;;;6.10;4.80;;;12.10;69.40;;;;;;5054110;28;20021;-72
2022/05/03 03:52:53;;;;;;;4.85;3.78;;;11.70;70.60;;;;;;5054115;28;20033;-71
2022/05/03 03:55:20;;;;;;;8.27;3.85;;;11.50;71.30;;;;;;5054095;28;20021;-72
2022/05/03 03:57:46;;;;;;;5.70;4.03;;;11.50;71.50;;;;;;5053912;28;20047;-72
2022/05/03 04:00:14;;;;;;;5.97;3.65;;;11.50;71.80;;;;;;5054179;28;20032;-71
2022/05/03 04:02:45;;;;;;;7.07;3.60;;;11.40;71.80;;;;;;5054255;28;20133;-72
2022/05/03 04:05:18;;;;;;;6.95;4.25;;;11.40;71.80;;;;;;5054131;28;20025;-71
2022/05/03 04:07:44;;;;;;;4.32;3.55;;;11.40;72.00;;;;;;5053266;28;20044;-71
2022/05/03 04:10:10;;;;;;;6.00;4.38;;;11.40;72.00;;;;;;5053842;28;20021;-72
2022/05/03 04:12:36;;;;;;;6.28;3.72;;;11.50;71.80;;;;;;5053768;28;20503;-71
2022/05/03 04:15:02;;;;;;;8.70;4.30;;;11.50;71.50;;;;;;5053656;28;20028;-71
2022/05/03 04:17:28;;;;;;;4.97;3.92;;;11.50;71.50;;;;;;5053703;28;20024;-71
2022/05/03 04:19:54;;;;;;;6.97;3.63;;;11.50;71.60;;;;;;5053931;28;20112;-72
2022/05/03 04:22:23;;;;;;;6.10;3.67;;;11.60;71.40;;;;;;5053559;28;20049;-72
2022/05/03 04:24:48;;;;;;;4.22;3.50;;;11.80;71.00;;;;;;5053800;28;20098;-72
2022/05/03 04:27:15;;;;;;;4.30;3.60;;;11.90;70.70;;;;;;5053785;28;20025;-72
2022/05/03 04:29:40;;;;;;;6.30;3.15;;;12.00;70.50;;;;;;5053887;28;20029;-72
2022/05/03 04:32:06;;;;;;;6.28;3.90;;;12.00;70.30;;;;;;5053526;28;20017;-72
2022/05/03 04:34:32;;;;;;;5.10;3.58;;;12.00;70.20;;;;;;5053580;28;20035;-71
2022/05/03 04:36:58;;;;;;;6.22;4.18;;;11.80;70.60;;;;;;5053463;28;20104;-72
2022/05/03 04:39:24;;;;;;;4.57;3.55;;;11.80;70.60;;;;;;5053387;28;20579;-72
2022/05/03 04:41:49;;;;;;;7.00;3.78;;;11.80;70.70;;;;;;5053173;28;20113;-72
2022/05/03 04:44:15;;;;;;;8.00;3.92;;;11.70;71.20;;;;;;5052999;28;20017;-72
2022/05/03 04:46:40;;;;;;;6.55;3.83;;;11.60;71.40;;;;;;5053060;28;20048;-72
2022/05/03 04:49:06;;;;;;;4.65;3.00;;;11.50;71.60;;;;;;5053343;28;20043;-71
2022/05/03 04:51:33;;;;;;;4.88;3.40;;;11.60;71.70;;;;;;5053391;28;20474;-71
2022/05/03 04:53:58;;;;;;;2.88;2.55;;;11.80;71.60;;;;;;5053343;28;20029;-72
2022/05/03 04:56:24;;;;;;;4.57;2.95;;;11.90;71.50;;;;;;5053212;28;20100;-72
2022/05/03 04:58:55;;;;;;;4.10;3.38;;;12.00;71.20;;;;;;5052979;28;20031;-72
2022/05/03 05:01:20;;;;;;;2.58;2.03;;;12.10;70.90;;;;;;5053130;28;20029;-72
2022/05/03 05:03:46;;;;;;;4.47;2.78;;;12.20;70.70;;;;;;5053376;28;20020;-71
2022/05/03 05:06:12;;;;;;;4.35;3.28;;;12.40;70.70;;;;;;5052826;28;20021;-72
2022/05/03 05:08:39;;;;;;;4.60;2.92;;;12.50;70.30;;;;;;5052875;28;20495;-72
2022/05/03 05:11:05;;;;;;;5.68;3.17;;;12.60;70.00;;;;;;5052825;28;20017;-72
2022/05/03 05:13:34;;;;;;;4.30;2.92;;;12.60;69.70;;;;;;5053161;28;20100;-72
2022/05/03 05:16:00;;;;;;;6.35;2.53;;;12.60;69.60;;;;;;5053340;28;20052;-72
2022/05/03 05:18:27;;;;;;;2.90;2.60;;;12.70;69.40;;;;;;5052734;28;20025;-72
2022/05/03 05:20:53;;;;;;;4.00;2.90;;;12.80;69.20;;;;;;5056086;28;20017;-72
2022/05/03 05:23:19;;;;;;;5.90;3.28;;;12.90;69.10;;;;;;5056891;28;20025;-72
2022/05/03 05:25:47;;;;;;;5.25;2.60;;;12.90;68.90;;;;;;5056372;28;20025;-71
2022/05/03 05:28:13;;;;;;;5.57;3.38;;;12.90;68.90;;;;;;5056980;28;20033;-71
2022/05/03 05:30:39;;;;;;;7.43;3.97;;;13.00;68.90;;;;;;5056792;28;20155;-71
2022/05/03 05:33:05;;;;;;;4.20;3.13;;;12.90;68.90;;;;;;5056640;28;20123;-71
2022/05/03 05:35:30;;;;;;;5.32;3.70;;;12.70;69.20;;;;;;5056725;28;20025;-71
2022/05/03 05:37:56;;;;;;;5.78;4.15;;;12.80;69.80;;;;;;5056596;28;20422;-71
2022/05/03 05:40:21;;;;;;;4.18;2.88;;;12.60;69.80;;;;;;5056216;28;20029;-72
2022/05/03 05:42:49;;;;;;;5.57;3.72;;;12.40;70.60;;;;;;5056421;28;20098;-72
2022/05/03 05:45:16;;;;;;;5.35;3.70;;;12.30;71.00;;;;;;5056177;28;20028;-71
2022/05/03 05:47:42;;;;;;;7.18;4.20;;;12.20;71.40;;;;;;5055677;28;20583;-71
2022/05/03 05:50:11;;;;;;;3.28;2.70;;;12.20;71.30;;;;;;5055909;28;20021;-72
2022/05/03 05:55:22;;;;;;;6.20;3.40;;;12.10;71.20;;;;;;5055994;28;20028;-73
2022/05/03 05:57:47;;;;;;;5.00;3.42;;;12.30;70.70;;;;;;5056228;28;20033;-72
2022/05/03 06:00:13;;;;;;;6.38;3.30;;;12.40;70.10;;;;;;5056022;28;20377;-72
2022/05/03 06:02:39;;;;;;;4.75;2.70;;;12.50;69.70;;;;;;5055939;28;20031;-72
2022/05/03 06:05:06;;;;;;;3.63;2.45;;;12.70;69.60;;;;;;5055684;28;20447;-71
2022/05/03 06:07:31;;;;;;;3.95;3.08;;;12.80;68.20;;;;;;5055462;28;20026;-72
2022/05/03 06:09:58;;;;;;;3.17;2.58;;;12.90;68.10;;;;;;5055654;28;20079;-72
2022/05/03 06:12:23;;;;;;;4.15;3.00;;;13.00;67.50;;;;;;5055885;28;20044;-71
2022/05/03 06:14:49;;;;;;;4.05;2.42;;;13.10;66.20;;;;;;5055712;28;20472;-71
2022/05/03 06:17:15;;;;;;;4.75;2.75;;;13.20;66.30;;;;;;5055516;28;20453;-72
2022/05/03 06:19:40;;;;;;;2.90;2.17;;;13.20;64.40;;;;;;5055647;28;20033;-72
2022/05/03 06:22:06;;;;;;;3.85;1.60;;;13.30;64.00;;;;;;5055263;28;20462;-72
2022/05/03 06:24:31;;;;;;;3.60;1.88;;;13.40;63.70;;;;;;5055050;28;20025;-71
2022/05/03 06:26:58;;;;;;;2.30;1.90;;;13.50;63.60;;;;;;5055467;28;20070;-72
2022/05/03 06:29:24;;;;;;;3.63;2.08;;;13.50;62.00;;;;;;5055142;28;20029;-72
2022/05/03 06:31:50;;;;;;;3.90;1.55;;;13.60;61.70;;;;;;5054651;28;20024;-72
2022/05/03 06:34:16;;;;;;;3.10;1.25;;;13.60;61.80;;;;;;5054922;28;20078;-72
2022/05/03 06:36:42;;;;;;;3.40;1.33;;;13.60;59.70;;;;;;5055156;28;20100;-72
2022/05/03 06:39:08;;;;;;;7.38;1.05;;;13.50;59.90;;;;;;5054780;28;20488;-72
2022/05/03 06:41:33;;;;;;;1.23;0.80;;;13.60;59.60;;;;;;5054853;28;20029;-72
2022/05/03 06:44:00;;;;;;;2.40;0.93;;;13.60;58.40;;;;;;5055216;28;20017;-72
2022/05/03 06:46:26;;;;;;;4.07;0.70;;;13.70;58.70;;;;;;5054687;28;20059;-72
2022/05/03 06:48:52;;;;;;;2.20;0.68;;;13.80;58.30;;;;;;5054830;28;20036;-72
2022/05/03 06:51:18;;;;;;;4.13;1.00;;;13.90;56.90;;;;;;5054525;28;20425;-72
2022/05/03 06:53:44;;;;;;;2.47;1.00;;;13.90;56.80;;;;;;5054836;28;20108;-72
2022/05/03 06:56:10;;;;;;;2.70;1.05;;;13.90;57.60;;;;;;5054850;28;20049;-72
2022/05/03 06:58:35;;;;;;;3.35;1.23;;;14.00;58.20;;;;;;5054972;28;20021;-72
2022/05/03 07:01:15;;;;;;;4.10;1.40;;;14.10;59.20;;;;;;5054626;28;20029;-72
2022/05/03 07:03:42;;;;;;;2.13;1.08;;;13.90;59.90;;;;;;5054257;28;20112;-72
2022/05/03 07:06:08;;;;;;;2.45;1.40;;;14.10;60.20;;;;;;5054823;28;20100;-72
2022/05/03 07:08:35;;;;;;;4.65;1.60;;;14.20;60.40;;;;;;5054436;28;20040;-72
2022/05/03 07:11:00;;;;;;;2.25;1.38;;;14.10;60.30;;;;;;5054393;28;20475;-72
2022/05/03 07:13:27;;;;;;;2.40;1.35;;;14.20;61.00;;;;;;5054508;28;20083;-72
2022/05/03 07:15:54;;;;;;;2.05;1.27;;;14.50;61.00;;;;;;5054587;28;20038;-72
2022/05/03 07:23:49;;;;;;;6.18;2.30;;;15.00;61.70;;;;;;5054610;28;20032;-72
2022/05/03 07:26:15;;;;;;;5.32;1.90;;;15.00;61.30;;;;;;5054200;28;20021;-72
2022/05/03 07:28:41;;;;;;;5.05;1.70;;;15.00;60.80;;;;;;5053996;28;20037;-72
2022/05/03 07:31:08;;;;;;;5.00;2.67;;;15.00;60.40;;;;;;5054360;28;20027;-70
2022/05/03 07:33:34;;;;;;;3.55;2.40;;;15.00;60.60;;;;;;5054257;28;20029;-71
2022/05/03 07:36:00;;;;;;;4.97;2.70;;;15.10;60.30;;;;;;5054003;28;20024;-71
2022/05/03 07:38:25;;;;;;;6.20;2.95;;;15.20;61.30;;;;;;5053699;28;20132;-71
2022/05/03 07:40:51;;;;;;;5.10;2.92;;;15.30;61.90;;;;;;5053779;28;20021;-71
2022/05/03 07:43:16;;;;;;;5.05;3.10;;;15.40;61.00;;;;;;5053785;28;20032;-71
2022/05/03 07:45:42;;;;;;;4.38;2.97;;;15.50;60.70;;;;;;5053625;28;20041;-71
2022/05/03 07:48:08;;;;;;;5.38;3.20;;;15.70;60.60;;;;;;5053633;28;20041;-71
2022/05/03 07:50:33;;;;;;;5.07;2.60;;;15.80;60.60;;;;;;5053376;28;20071;-71
2022/05/03 07:52:59;;;;;;;3.85;3.08;;;16.00;61.20;;;;;;5053802;28;20029;-71
2022/05/03 07:55:25;;;;;;;6.10;3.63;;;16.20;61.00;;;;;;5053691;28;20559;-71
2022/05/03 07:57:50;;;;;;;6.85;3.85;;;16.40;61.50;;;;;;5053411;28;20024;-72
2022/05/03 08:00:16;;;;;;;7.28;4.00;;;16.40;60.90;;;;;;5053769;28;20047;-71
2022/05/03 08:02:42;;;;;;;5.32;2.97;;;16.30;60.70;;;;;;5054353;28;20033;-71
2022/05/03 08:05:10;;;;;;;5.07;3.03;;;16.30;61.00;;;;;;5053590;28;20028;-71
2022/05/03 08:07:36;;;;;;;4.93;3.15;;;16.50;61.50;;;;;;5053374;28;20043;-71
2022/05/03 08:10:03;;;;;;;5.68;3.90;;;16.70;60.10;;;;;;5053416;28;20025;-71
2022/05/03 08:12:28;;;;;;;7.28;3.10;;;16.80;60.70;;;;;;5053118;28;20484;-71
2022/05/03 08:14:56;;;;;;;10.75;3.70;;;16.90;60.90;;;;;;5053070;28;20025;-71
2022/05/03 08:17:24;;;;;;;7.53;3.85;;;17.00;61.80;;;;;;5053143;28;20183;-71
2022/05/03 08:19:49;;;;;;;7.88;4.35;;;17.20;60.90;;;;;;5053342;28;20025;-71
2022/05/03 08:22:15;;;;;;;6.35;3.97;;;17.00;59.00;;;;;;5053164;28;20014;-71
2022/05/03 08:24:40;;;;;;;4.82;4.15;;;17.00;61.80;;;;;;5053073;28;20052;-71
2022/05/03 08:27:06;;;;;;;3.85;2.90;;;17.00;60.70;;;;;;5052716;28;20389;-71
2022/05/03 08:29:32;;;;;;;4.70;3.00;;;17.20;59.80;;;;;;5053159;28;20483;-71
2022/05/03 08:31:59;;;;;;;7.75;3.85;;;17.40;60.30;;;;;;5053212;28;20151;-71
2022/05/03 08:34:26;;;;;;;4.78;3.53;;;17.60;59.00;;;;;;5052896;28;20497;-71
2022/05/03 08:42:20;;;;;;;9.00;4.78;;;17.70;59.70;;;;;;5052886;28;20054;-71
2022/05/03 08:44:45;;;;;;;33.08;9.05;;;17.70;60.30;;;;;;5052822;28;20024;-71
2022/05/03 08:47:11;;;;;;;7.40;3.88;;;17.50;61.40;;;;;;5052363;28;20045;-72
2022/05/03 08:49:40;;;;;;;4.50;3.53;;;17.50;60.90;;;;;;5052744;28;20025;-72
2022/05/03 08:52:08;;;;;;;7.07;4.00;;;17.40;60.30;;;;;;5052272;28;20036;-72
2022/05/03 08:54:36;;;;;;;12.07;4.95;;;17.30;60.80;;;;;;5052227;28;20032;-72
2022/05/03 08:57:08;;;;;;;4.22;3.47;;;17.10;61.90;;;;;;5052557;28;20028;-72
2022/05/03 08:59:37;;;;;;;14.90;4.53;;;16.90;61.80;;;;;;5052613;28;20074;-72
2022/05/03 09:02:04;;;;;;;11.52;4.22;;;16.90;62.20;;;;;;5052224;28;20108;-71
2022/05/03 09:04:30;;;;;;;5.72;3.75;;;17.00;63.20;;;;;;5052135;28;20370;-71
2022/05/03 09:06:56;;;;;;;23.08;5.00;;;17.10;62.00;;;;;;5052551;28;20028;-72
2022/05/03 09:09:22;;;;;;;16.30;4.35;;;17.30;63.70;;;;;;5052590;28;20435;-72
2022/05/03 09:11:53;;;;;;;5.55;3.25;;;17.50;62.80;;;;;;5052797;28;20021;-72
2022/05/03 09:14:39;;;;;;;6.22;2.83;;;17.70;61.90;;;;;;5052068;28;20383;-72
2022/05/03 09:17:06;;;;;;;5.65;3.47;;;17.70;61.50;;;;;;5052354;28;20043;-71
2022/05/03 09:19:32;;;;;;;4.10;3.10;;;17.80;60.70;;;;;;5052808;28;20017;-71
2022/05/03 09:24:57;;;;;;;6.03;3.28;;;17.90;60.40;;;;;;5052719;28;20036;-71
2022/05/03 09:27:25;;;;;;;5.32;3.22;;;17.70;60.80;;;;;;5052056;28;20025;-71
2022/05/03 09:30:08;;;;;;;9.70;3.88;;;17.60;61.10;;;;;;5052554;28;20033;-71
2022/05/03 09:32:42;;;;;;;;;;;17.50;60.20;;;;;;5053008;28;20087;-72
2022/05/03 09:35:34;;;;;;;4.68;2.90;;;17.40;60.30;;;;;;5052442;28;19942;-71
2022/05/03 09:38:04;;;;;;;5.13;2.83;;;17.40;60.80;;;;;;5051987;28;20025;-72
2022/05/03 09:40:45;;;;;;;6.22;3.25;;;17.40;61.90;;;;;;5052482;28;20047;-72
2022/05/03 09:43:12;;;;;;;4.65;3.20;;;17.20;62.30;;;;;;5052152;28;20037;-72
2022/05/03 09:45:38;;;;;;;4.40;2.97;;;16.90;63.00;;;;;;5052292;28;20037;-71
2022/05/03 09:48:05;;;;;;;5.75;3.30;;;16.80;63.80;;;;;;5052162;28;20423;-72
2022/05/03 09:50:31;;;;;;;6.72;4.30;;;16.80;64.20;;;;;;5051836;28;20567;-72
2022/05/03 09:52:57;;;;;;;5.60;2.95;;;16.80;63.90;;;;;;5052090;28;20108;-71
2022/05/03 09:55:31;;;;;;;15.93;4.35;;;16.90;64.30;;;;;;5052274;28;20056;-71
2022/05/03 09:58:01;;;;;;;8.18;5.40;;;16.90;65.20;;;;;;5052318;28;20422;-73
2022/05/03 10:00:27;;;;;;;9.57;5.00;;;16.90;66.00;;;;;;5052274;28;20025;-73
2022/05/03 10:02:53;;;;;;;9.27;5.30;;;16.90;66.60;;;;;;5051951;28;20033;-73
2022/05/03 10:05:22;;;;;;;8.02;5.18;;;17.00;65.90;;;;;;5052231;28;20047;-73
2022/05/03 10:07:49;;;;;;;9.63;5.55;;;16.90;65.80;;;;;;5054667;28;20037;-72
2022/05/03 10:10:16;;;;;;;7.18;5.55;;;16.90;66.70;;;;;;5055849;28;20029;-72
2022/05/03 10:12:43;;;;;;;7.47;5.30;;;16.60;66.40;;;;;;5055665;28;20384;-72
2022/05/03 10:15:09;;;;;;;7.90;4.72;;;16.60;66.50;;;;;;5055212;28;20028;-72
2022/05/03 10:20:45;;;;;;;6.75;4.45;;;16.80;66.70;;;;;;5055764;28;20067;-72
2022/05/03 10:23:19;;;;;;;5.50;4.30;;;16.90;65.20;;;;;;5055707;28;20021;-72
2022/05/03 10:25:45;;;;;;;5.35;4.00;;;16.90;64.40;;;;;;5055675;28;20074;-72
2022/05/03 10:28:10;;;;;;;5.75;4.28;;;17.10;63.90;;;;;;5055381;28;20036;-72
2022/05/03 10:30:38;;;;;;;6.40;4.63;;;17.20;64.60;;;;;;5056021;28;20108;-72
2022/05/03 10:33:19;;;;;;;8.10;4.32;;;17.30;64.80;;;;;;5055466;28;20144;-72
2022/05/03 10:35:46;;;;;;;6.90;5.45;;;17.40;64.90;;;;;;5055386;28;20049;-72
2022/05/03 10:38:12;;;;;;;8.63;5.70;;;17.40;64.60;;;;;;5055269;28;20036;-72
2022/05/03 10:40:48;;;;;;;7.13;5.57;;;17.50;64.90;;;;;;5054964;28;20025;-72
2022/05/03 10:43:30;;;;;;;11.68;6.55;;;17.50;65.00;;;;;;5055751;28;20405;-72
2022/05/03 10:45:58;;;;;;;5.28;4.72;;;17.50;64.50;;;;;;5055367;28;20506;-72
2022/05/03 10:48:30;;;;;;;8.45;5.60;;;17.60;64.50;;;;;;5055247;28;20393;-72
2022/05/03 10:51:01;;;;;;;7.22;5.68;;;17.60;65.70;;;;;;5055294;28;20029;-72
2022/05/03 10:53:29;;;;;;;5.80;4.15;;;17.50;66.80;;;;;;5055445;28;20040;-72
2022/05/03 10:56:18;;;;;;;5.88;4.20;;;17.60;66.40;;;;;;5055031;28;20104;-72
2022/05/03 10:59:05;;;;;;;6.68;4.10;;;17.60;65.30;;;;;;5055390;28;20021;-72
2022/05/03 11:01:32;;;;;;;9.10;4.55;;;17.60;65.40;;;;;;5051454;28;20029;-72
2022/05/03 11:03:58;;;;;;;6.97;4.57;;;17.80;64.90;;;;;;5055166;28;20108;-73
2022/05/03 11:06:26;;;;;;;5.15;3.78;;;17.90;64.30;;;;;;5055238;28;20475;-72
2022/05/03 11:08:58;;;;;;;3.70;3.30;;;18.00;63.90;;;;;;5054756;28;20087;-73
2022/05/03 11:11:39;;;;;;;6.15;2.72;;;18.00;63.60;;;;;;5054951;28;20021;-73
2022/05/03 11:14:18;;;;;;;3.13;2.40;;;18.00;63.60;;;;;;5055092;28;20037;-72
2022/05/03 11:17:11;;;;;;;2.83;2.22;;;18.30;65.40;;;;;;5054904;28;20032;-72
2022/05/03 11:19:52;;;;;;;3.75;2.45;;;18.50;62.60;;;;;;5054776;28;20037;-73
2022/05/03 11:22:24;;;;;;;2.80;2.00;;;18.60;60.70;;;;;;5055016;28;20033;-72
2022/05/03 11:24:55;;;;;;;3.15;2.40;;;18.50;61.40;;;;;;5054715;28;20086;-73
2022/05/03 11:27:22;;;;;;;4.82;2.30;;;18.50;60.30;;;;;;5054399;28;20421;-72
2022/05/03 11:29:55;;;;;;;5.93;2.30;;;18.60;60.00;;;;;;5054181;28;20427;-72
2022/05/03 11:32:36;;;;;;;6.95;2.53;;;18.60;60.30;;;;;;5054371;28;20025;-73
2022/05/03 11:35:26;;;;;;;6.13;2.63;;;18.80;61.70;;;;;;5054439;28;20484;-73
2022/05/03 11:37:55;;;;;;;4.30;3.40;;;18.80;61.20;;;;;;5051522;28;20067;-72
2022/05/03 11:40:22;;;;;;;5.22;3.28;;;18.70;61.50;;;;;;5054422;28;20021;-72
2022/05/03 11:42:49;;;;;;;6.82;3.97;;;19.00;62.50;;;;;;5053998;28;20045;-72
2022/05/03 11:45:16;;;;;;;3.38;2.72;;;19.00;60.30;;;;;;5054251;28;20032;-72
2022/05/03 11:47:47;;;;;;;4.97;3.22;;;18.90;61.20;;;;;;5054147;28;20120;-72
2022/05/03 11:55:58;;;;;;;4.28;3.13;;;18.80;60.90;;;;;;5054143;28;20070;-72
2022/05/03 11:56:04;;;;;;;5.30;3.33;;;19.00;61.60;;;;;;5053857;28;20108;-72
2022/05/03 11:58:32;;;;;;;5.22;3.60;;;19.20;61.30;;;;;;5054079;28;20056;-72
2022/05/03 12:00:57;;;;;;;3.85;3.15;;;19.20;61.30;;;;;;5054069;28;20079;-73
2022/05/03 12:03:23;;;;;;;5.63;3.20;;;19.20;61.00;;;;;;5054022;28;20400;-73
2022/05/03 12:06:04;;;;;;;4.38;2.88;;;19.20;60.40;;;;;;5053788;28;20349;-73
2022/05/03 12:08:30;;;;;;;4.20;2.80;;;19.00;59.60;;;;;;5053833;28;20056;-73
2022/05/03 12:10:56;;;;;;;4.85;2.67;;;18.90;60.30;;;;;;5054073;28;20029;-72
2022/05/03 12:13:22;;;;;;;4.63;2.70;;;18.80;61.00;;;;;;5054006;28;20036;-72
2022/05/03 12:15:50;;;;;;;10.82;3.15;;;18.70;61.20;;;;;;5053674;28;20071;-72
2022/05/03 12:18:15;;;;;;;20.20;4.57;;;18.50;61.10;;;;;;5053332;28;20033;-72
2022/05/03 12:20:57;;;;;;;9.90;3.03;;;18.40;61.40;;;;;;5053577;28;20032;-72
2022/05/03 12:23:24;;;;;;;4.43;2.83;;;18.30;61.60;;;;;;5053514;28;20036;-72
2022/05/03 12:25:54;;;;;;;6.93;3.00;;;18.20;62.00;;;;;;5053894;28;20021;-72
2022/05/03 12:28:21;;;;;;;5.95;2.70;;;18.20;62.80;;;;;;5053653;28;20377;-72
2022/05/03 12:30:55;;;;;;;4.15;2.30;;;18.10;63.00;;;;;;5052355;28;20491;-72
2022/05/03 12:33:24;;;;;;;6.55;2.60;;;18.10;63.50;;;;;;5053610;28;20029;-72
2022/05/03 12:35:50;;;;;;;6.10;3.03;;;18.10;63.50;;;;;;5053508;28;20035;-72
2022/05/03 12:38:17;;;;;;;3.38;2.58;;;18.10;63.70;;;;;;5053639;28;20025;-72
2022/05/03 12:40:53;;;;;;;4.07;2.60;;;18.00;63.80;;;;;;5053320;28;20021;-72
2022/05/03 12:43:26;;;;;;;5.95;2.72;;;18.00;63.50;;;;;;5052845;28;20048;-72
2022/05/03 12:46:25;;;;;;;3.55;2.90;;;18.00;63.20;;;;;;5053204;28;20181;-72
2022/05/03 12:48:51;;;;;;;3.88;2.60;;;18.00;63.10;;;;;;5053443;28;20048;-72
2022/05/03 12:51:18;;;;;;;5.65;3.13;;;18.00;63.10;;;;;;5053197;28;20072;-72
2022/05/03 12:53:47;;;;;;;6.72;4.05;;;18.00;63.40;;;;;;5052818;28;20553;-72
2022/05/03 12:58:58;;;;;;;8.30;5.40;;;17.90;63.90;;;;;;5053340;28;20032;-72
2022/05/03 13:01:24;;;;;;;8.55;6.00;;;17.90;64.90;;;;;;5052852;28;20013;-72
2022/05/03 13:03:51;;;;;;;18.88;10.05;;;17.60;65.40;;;;;;5053351;28;20522;-72
2022/05/03 13:06:17;;;;;;;24.92;14.60;;;17.40;67.00;;;;;;5052864;28;20021;-72
2022/05/03 13:08:43;;;;;;;25.75;16.50;;;17.20;69.60;;;;;;5052902;28;20472;-72
2022/05/03 13:11:10;;;;;;;30.17;18.30;;;17.10;70.60;;;;;;5052947;28;20025;-72
2022/05/03 13:13:39;;;;;;;31.95;18.55;;;16.90;72.20;;;;;;5053338;28;20029;-73
2022/05/03 13:16:05;;;;;;;32.05;19.58;;;16.80;73.10;;;;;;5053237;28;20047;-72
2022/05/03 13:18:31;;;;;;;29.90;17.98;;;16.60;74.50;;;;;;5053057;28;20460;-72
2022/05/03 13:20:57;;;;;;;37.67;21.52;;;16.50;74.60;;;;;;5052761;28;20021;-71
2022/05/03 13:23:22;;;;;;;39.53;20.27;;;16.50;75.30;;;;;;5052668;28;20029;-72
2022/05/03 13:25:48;;;;;;;32.33;17.33;;;16.40;75.60;;;;;;5053079;28;20025;-71
2022/05/03 13:28:15;;;;;;;33.38;19.05;;;16.30;75.60;;;;;;5052726;28;20040;-72
2022/05/03 13:30:42;;;;;;;27.05;17.63;;;16.30;75.60;;;;;;5052542;28;20033;-71